sensor_id;sensor_type;location;lat;lon;timestamp;pressure;altitude;pressure_sealevel;temperature;humidity
68654;BME280;55636;51.108;13.622;2022-07-22T00:00:41;100542.81;;;22.31;45.33
68654;BME280;55636;51.108;13.622;2022-07-22T00:01:44;100546.28;;;22.28;45.30
68654;BME280;55636;51.108;13.622;2022-07-22T00:02:46;100546.97;;;22.25;45.43
68654;BME280;55636;51.108;13.622;2022-07-22T00:03:49;100549.28;;;22.23;45.14
68654;BME280;55636;51.108;13.622;2022-07-22T00:04:51;100549.13;;;22.19;45.30
68654;BME280;55636;51.108;13.622;2022-07-22T00:05:53;100549.00;;;22.16;45.31
68654;BME280;55636;51.108;13.622;2022-07-22T00:06:55;100554.44;;;22.12;45.46
68654;BME280;55636;51.108;13.622;2022-07-22T00:07:58;100549.44;;;22.09;45.33
68654;BME280;55636;51.108;13.622;2022-07-22T00:09:00;100550.94;;;22.06;45.25
68654;BME280;55636;51.108;13.622;2022-07-22T00:10:05;100544.34;;;22.02;45.64
68654;BME280;55636;51.108;13.622;2022-07-22T00:11:09;100549.50;;;22.00;45.39
68654;BME280;55636;51.108;13.622;2022-07-22T00:12:11;100544.84;;;21.96;45.55
68654;BME280;55636;51.108;13.622;2022-07-22T00:13:13;100550.00;;;21.94;45.75
68654;BME280;55636;51.108;13.622;2022-07-22T00:14:16;100549.50;;;21.92;45.62
68654;BME280;55636;51.108;13.622;2022-07-22T00:15:18;100543.72;;;21.88;45.59
68654;BME280;55636;51.108;13.622;2022-07-22T00:16:20;100545.22;;;21.85;45.92
68654;BME280;55636;51.108;13.622;2022-07-22T00:17:23;100550.69;;;21.82;45.73
68654;BME280;55636;51.108;13.622;2022-07-22T00:18:25;100552.19;;;21.79;45.76
68654;BME280;55636;51.108;13.622;2022-07-22T00:19:27;100549.69;;;21.78;46.09
68654;BME280;55636;51.108;13.622;2022-07-22T00:20:29;100558.78;;;21.74;45.94
68654;BME280;55636;51.108;13.622;2022-07-22T00:21:32;100553.84;;;21.71;45.98
68654;BME280;55636;51.108;13.622;2022-07-22T00:22:34;100553.34;;;21.69;46.11
68654;BME280;55636;51.108;13.622;2022-07-22T00:23:39;100549.53;;;21.65;45.88
68654;BME280;55636;51.108;13.622;2022-07-22T00:24:41;100556.31;;;21.64;46.09
68654;BME280;55636;51.108;13.622;2022-07-22T00:25:43;100557.81;;;21.62;46.24
68654;BME280;55636;51.108;13.622;2022-07-22T00:26:46;100552.84;;;21.59;46.26
68654;BME280;55636;51.108;13.622;2022-07-22T00:27:48;100556.00;;;21.57;46.10
68654;BME280;55636;51.108;13.622;2022-07-22T00:28:51;100559.44;;;21.54;46.16
68654;BME280;55636;51.108;13.622;2022-07-22T00:29:53;100551.69;;;21.51;46.35
68654;BME280;55636;51.108;13.622;2022-07-22T00:30:56;100559.63;;;21.49;46.61
68654;BME280;55636;51.108;13.622;2022-07-22T00:31:59;100560.75;;;21.48;46.28
68654;BME280;55636;51.108;13.622;2022-07-22T00:33:01;100559.44;;;21.45;46.53
68654;BME280;55636;51.108;13.622;2022-07-22T00:34:03;100560.09;;;21.42;46.30
68654;BME280;55636;51.108;13.622;2022-07-22T00:35:06;100564.03;;;21.41;46.47
68654;BME280;55636;51.108;13.622;2022-07-22T00:36:09;100556.28;;;21.38;46.64
68654;BME280;55636;51.108;13.622;2022-07-22T00:37:12;100562.25;;;21.36;46.51
68654;BME280;55636;51.108;13.622;2022-07-22T00:38:14;100559.75;;;21.35;46.67
68654;BME280;55636;51.108;13.622;2022-07-22T00:39:16;100561.25;;;21.32;46.90
68654;BME280;55636;51.108;13.622;2022-07-22T00:40:19;100552.66;;;21.29;46.75
68654;BME280;55636;51.108;13.622;2022-07-22T00:41:21;100554.94;;;21.27;46.77
68654;BME280;55636;51.108;13.622;2022-07-22T00:42:25;100556.44;;;21.24;46.80
68654;BME280;55636;51.108;13.622;2022-07-22T00:43:52;100557.09;;;21.21;46.56
68654;BME280;55636;51.108;13.622;2022-07-22T00:44:57;100549.63;;;21.16;46.68
68654;BME280;55636;51.108;13.622;2022-07-22T00:46:02;100559.22;;;21.15;46.63
68654;BME280;55636;51.108;13.622;2022-07-22T00:47:04;100548.66;;;21.12;46.69
68654;BME280;55636;51.108;13.622;2022-07-22T00:48:07;100551.78;;;21.11;46.63
68654;BME280;55636;51.108;13.622;2022-07-22T00:49:10;100554.94;;;21.09;46.69
68654;BME280;55636;51.108;13.622;2022-07-22T00:50:12;100552.44;;;21.07;46.70
68654;BME280;55636;51.108;13.622;2022-07-22T00:51:17;100544.66;;;21.04;46.55
68654;BME280;55636;51.108;13.622;2022-07-22T00:52:21;100551.75;;;21.02;46.59
68654;BME280;55636;51.108;13.622;2022-07-22T00:53:24;100553.25;;;20.99;46.69
68654;BME280;55636;51.108;13.622;2022-07-22T00:54:26;100556.38;;;20.98;46.73
68654;BME280;55636;51.108;13.622;2022-07-22T00:55:33;100561.47;;;20.96;46.62
68654;BME280;55636;51.108;13.622;2022-07-22T00:56:36;100552.56;;;20.94;46.84
68654;BME280;55636;51.108;13.622;2022-07-22T00:57:41;100561.34;;;20.92;46.75
68654;BME280;55636;51.108;13.622;2022-07-22T00:58:45;100550.41;;;20.90;46.99
68654;BME280;55636;51.108;13.622;2022-07-22T00:59:47;100565.97;;;20.88;46.67
68654;BME280;55636;51.108;13.622;2022-07-22T01:00:50;100555.88;;;20.87;47.00
68654;BME280;55636;51.108;13.622;2022-07-22T01:01:52;100556.19;;;20.85;46.70
68654;BME280;55636;51.108;13.622;2022-07-22T01:02:54;100558.50;;;20.83;47.04
68654;BME280;55636;51.108;13.622;2022-07-22T01:03:56;100562.13;;;20.84;46.87
68654;BME280;55636;51.108;13.622;2022-07-22T01:05:04;100564.44;;;20.82;47.03
68654;BME280;55636;51.108;13.622;2022-07-22T01:06:09;100560.31;;;20.79;46.93
68654;BME280;55636;51.108;13.622;2022-07-22T01:07:13;100554.19;;;20.77;46.81
68654;BME280;55636;51.108;13.622;2022-07-22T01:08:15;100556.16;;;20.77;46.77
68654;BME280;55636;51.108;13.622;2022-07-22T01:09:17;100555.66;;;20.74;46.99
68654;BME280;55636;51.108;13.622;2022-07-22T01:10:20;100559.59;;;20.73;46.98
68654;BME280;55636;51.108;13.622;2022-07-22T01:11:23;100552.66;;;20.71;47.15
68654;BME280;55636;51.108;13.622;2022-07-22T01:12:26;100557.47;;;20.70;47.06
68654;BME280;55636;51.108;13.622;2022-07-22T01:13:28;100557.75;;;20.69;46.87
68654;BME280;55636;51.108;13.622;2022-07-22T01:14:31;100549.66;;;20.67;47.34
68654;BME280;55636;51.108;13.622;2022-07-22T01:15:33;100544.38;;;20.66;47.31
68654;BME280;55636;51.108;13.622;2022-07-22T01:16:36;100553.09;;;20.64;47.29
68654;BME280;55636;51.108;13.622;2022-07-22T01:17:39;100554.28;;;20.63;47.12
68654;BME280;55636;51.108;13.622;2022-07-22T01:18:42;100552.63;;;20.62;47.07
68654;BME280;55636;51.108;13.622;2022-07-22T01:19:45;100551.28;;;20.59;47.17
68654;BME280;55636;51.108;13.622;2022-07-22T01:20:47;100557.72;;;20.60;47.23
68654;BME280;55636;51.108;13.622;2022-07-22T01:21:49;100552.44;;;20.58;47.36
68654;BME280;55636;51.108;13.622;2022-07-22T01:22:51;100555.56;;;20.57;47.40
68654;BME280;55636;51.108;13.622;2022-07-22T01:23:54;100550.28;;;20.55;47.54
68654;BME280;55636;51.108;13.622;2022-07-22T01:24:56;100555.06;;;20.55;47.62
68654;BME280;55636;51.108;13.622;2022-07-22T01:25:59;100552.91;;;20.52;47.63
68654;BME280;55636;51.108;13.622;2022-07-22T01:27:02;100556.53;;;20.52;47.45
68654;BME280;55636;51.108;13.622;2022-07-22T01:28:05;100552.91;;;20.52;47.72
68654;BME280;55636;51.108;13.622;2022-07-22T01:29:07;100557.19;;;20.49;47.66
68654;BME280;55636;51.108;13.622;2022-07-22T01:30:10;100556.34;;;20.49;47.72
68654;BME280;55636;51.108;13.622;2022-07-22T01:31:13;100563.13;;;20.48;47.73
68654;BME280;55636;51.108;13.622;2022-07-22T01:32:16;100562.59;;;20.46;47.87
68654;BME280;55636;51.108;13.622;2022-07-22T01:33:20;100561.78;;;20.45;47.66
68654;BME280;55636;51.108;13.622;2022-07-22T01:34:23;100564.94;;;20.44;47.99
68654;BME280;55636;51.108;13.622;2022-07-22T01:35:27;100564.09;;;20.43;47.83
68654;BME280;55636;51.108;13.622;2022-07-22T01:36:29;100570.84;;;20.42;47.86
68654;BME280;55636;51.108;13.622;2022-07-22T01:37:34;100572.81;;;20.41;47.63
68654;BME280;55636;51.108;13.622;2022-07-22T01:38:37;100569.50;;;20.39;47.76
68654;BME280;55636;51.108;13.622;2022-07-22T01:39:39;100574.63;;;20.37;48.07
68654;BME280;55636;51.108;13.622;2022-07-22T01:40:44;100568.16;;;20.37;47.76
68654;BME280;55636;51.108;13.622;2022-07-22T01:41:48;100569.34;;;20.36;47.97
68654;BME280;55636;51.108;13.622;2022-07-22T01:42:50;100562.06;;;20.35;47.85
68654;BME280;55636;51.108;13.622;2022-07-22T01:43:53;100568.81;;;20.34;48.30
68654;BME280;55636;51.108;13.622;2022-07-22T01:44:55;100569.97;;;20.33;48.12
68654;BME280;55636;51.108;13.622;2022-07-22T01:45:57;100569.47;;;20.31;48.15
68654;BME280;55636;51.108;13.622;2022-07-22T01:46:59;100570.63;;;20.30;48.15
68654;BME280;55636;51.108;13.622;2022-07-22T01:48:03;100566.16;;;20.29;47.97
68654;BME280;55636;51.108;13.622;2022-07-22T01:49:05;100564.81;;;20.26;48.42
68654;BME280;55636;51.108;13.622;2022-07-22T01:50:12;100565.97;;;20.25;48.27
68654;BME280;55636;51.108;13.622;2022-07-22T01:51:14;100567.09;;;20.24;48.50
68654;BME280;55636;51.108;13.622;2022-07-22T01:52:17;100563.81;;;20.22;48.24
68654;BME280;55636;51.108;13.622;2022-07-22T01:53:19;100563.00;;;20.21;48.42
68654;BME280;55636;51.108;13.622;2022-07-22T01:54:22;100566.09;;;20.20;48.63
68654;BME280;55636;51.108;13.622;2022-07-22T01:55:25;100564.47;;;20.19;48.27
68654;BME280;55636;51.108;13.622;2022-07-22T01:56:27;100560.34;;;20.16;48.64
68654;BME280;55636;51.108;13.622;2022-07-22T01:57:29;100566.75;;;20.17;48.51
68654;BME280;55636;51.108;13.622;2022-07-22T01:58:33;100564.28;;;20.15;48.43
68654;BME280;55636;51.108;13.622;2022-07-22T01:59:42;100565.75;;;20.13;48.44
68654;BME280;55636;51.108;13.622;2022-07-22T02:00:45;100563.28;;;20.11;48.63
68654;BME280;55636;51.108;13.622;2022-07-22T02:01:48;100567.22;;;20.10;48.53
68654;BME280;55636;51.108;13.622;2022-07-22T02:02:52;100562.75;;;20.09;48.56
68654;BME280;55636;51.108;13.622;2022-07-22T02:03:54;100563.06;;;20.07;48.54
68654;BME280;55636;51.108;13.622;2022-07-22T02:04:59;100566.69;;;20.08;48.99
68654;BME280;55636;51.108;13.622;2022-07-22T02:06:02;100570.97;;;20.05;48.76
68654;BME280;55636;51.108;13.622;2022-07-22T02:07:08;100573.28;;;20.03;48.75
68654;BME280;55636;51.108;13.622;2022-07-22T02:08:10;100574.41;;;20.02;48.94
68654;BME280;55636;51.108;13.622;2022-07-22T02:09:33;100569.13;;;20.01;48.67
68654;BME280;55636;51.108;13.622;2022-07-22T02:10:36;100559.06;;;20.00;49.03
68654;BME280;55636;51.108;13.622;2022-07-22T02:11:39;100565.00;;;19.98;49.09
68654;BME280;55636;51.108;13.622;2022-07-22T02:12:43;100566.97;;;19.98;49.47
68654;BME280;55636;51.108;13.622;2022-07-22T02:13:45;100565.63;;;19.95;49.11
68654;BME280;55636;51.108;13.622;2022-07-22T02:14:47;100556.41;;;19.95;49.07
68654;BME280;55636;51.108;13.622;2022-07-22T02:15:50;100565.09;;;19.93;49.52
68654;BME280;55636;51.108;13.622;2022-07-22T02:16:53;100565.41;;;19.91;49.39
68654;BME280;55636;51.108;13.622;2022-07-22T02:17:55;100567.72;;;19.89;49.61
68654;BME280;55636;51.108;13.622;2022-07-22T02:18:58;100562.44;;;19.88;49.73
68654;BME280;55636;51.108;13.622;2022-07-22T02:20:02;100559.94;;;19.86;49.54
68654;BME280;55636;51.108;13.622;2022-07-22T02:21:05;100561.91;;;19.86;49.59
68654;BME280;55636;51.108;13.622;2022-07-22T02:22:08;100558.59;;;19.84;49.58
68654;BME280;55636;51.108;13.622;2022-07-22T02:23:12;100554.47;;;19.81;49.83
68654;BME280;55636;51.108;13.622;2022-07-22T02:24:14;100553.63;;;19.81;49.70
68654;BME280;55636;51.108;13.622;2022-07-22T02:25:16;100553.13;;;19.79;49.97
68654;BME280;55636;51.108;13.622;2022-07-22T02:26:21;100553.41;;;19.77;49.75
68654;BME280;55636;51.108;13.622;2022-07-22T02:27:23;100560.19;;;19.76;49.98
68654;BME280;55636;51.108;13.622;2022-07-22T02:28:25;100560.53;;;19.74;50.11
68654;BME280;55636;51.108;13.622;2022-07-22T02:29:28;100564.47;;;19.73;49.99
68654;BME280;55636;51.108;13.622;2022-07-22T02:30:32;100561.97;;;19.72;50.09
68654;BME280;55636;51.108;13.622;2022-07-22T02:31:34;100559.47;;;19.70;50.08
68654;BME280;55636;51.108;13.622;2022-07-22T02:32:41;100564.25;;;19.70;50.29
68654;BME280;55636;51.108;13.622;2022-07-22T02:33:43;100566.25;;;19.69;50.20
68654;BME280;55636;51.108;13.622;2022-07-22T02:34:47;100567.06;;;19.70;50.26
68654;BME280;55636;51.108;13.622;2022-07-22T02:35:49;100565.72;;;19.67;50.08
68654;BME280;55636;51.108;13.622;2022-07-22T02:36:56;100562.94;;;19.67;50.16
68654;BME280;55636;51.108;13.622;2022-07-22T02:37:59;100564.91;;;19.67;50.29
68654;BME280;55636;51.108;13.622;2022-07-22T02:39:03;100567.72;;;19.67;50.39
68654;BME280;55636;51.108;13.622;2022-07-22T02:40:07;100564.06;;;19.66;50.56
68654;BME280;55636;51.108;13.622;2022-07-22T02:41:10;100565.72;;;19.67;50.42
68654;BME280;55636;51.108;13.622;2022-07-22T02:42:19;100576.94;;;19.67;50.43
68654;BME280;55636;51.108;13.622;2022-07-22T02:43:24;100567.72;;;19.67;50.45
68654;BME280;55636;51.108;13.622;2022-07-22T02:44:28;100571.31;;;19.67;50.45
68654;BME280;55636;51.108;13.622;2022-07-22T02:45:31;100573.31;;;19.67;50.55
68654;BME280;55636;51.108;13.622;2022-07-22T02:46:33;100578.91;;;19.67;50.73
68654;BME280;55636;51.108;13.622;2022-07-22T02:47:52;100578.06;;;19.66;50.52
68654;BME280;55636;51.108;13.622;2022-07-22T02:48:55;100578.91;;;19.67;50.66
68654;BME280;55636;51.108;13.622;2022-07-22T02:49:58;100580.88;;;19.66;50.74
68654;BME280;55636;51.108;13.622;2022-07-22T02:51:01;100575.28;;;19.66;50.74
68654;BME280;55636;51.108;13.622;2022-07-22T02:52:05;100580.88;;;19.66;50.65
68654;BME280;55636;51.108;13.622;2022-07-22T02:53:07;100582.53;;;19.67;50.64
68654;BME280;55636;51.108;13.622;2022-07-22T02:54:12;100581.72;;;19.67;51.02
68654;BME280;55636;51.108;13.622;2022-07-22T02:55:15;100588.16;;;19.67;50.81
68654;BME280;55636;51.108;13.622;2022-07-22T02:56:17;100587.31;;;19.67;51.07
68654;BME280;55636;51.108;13.622;2022-07-22T02:57:22;100588.97;;;19.68;51.07
68654;BME280;55636;51.108;13.622;2022-07-22T02:58:24;100586.47;;;19.66;50.74
68654;BME280;55636;51.108;13.622;2022-07-22T02:59:28;100593.75;;;19.67;51.13
68654;BME280;55636;51.108;13.622;2022-07-22T03:00:30;100595.41;;;19.68;50.79
68654;BME280;55636;51.108;13.622;2022-07-22T03:01:33;100597.38;;;19.68;51.06
68654;BME280;55636;51.108;13.622;2022-07-22T03:02:35;100597.38;;;19.68;51.13
68654;BME280;55636;51.108;13.622;2022-07-22T03:03:39;100598.22;;;19.68;51.12
68654;BME280;55636;51.108;13.622;2022-07-22T03:04:41;100602.97;;;19.68;50.92
68654;BME280;55636;51.108;13.622;2022-07-22T03:05:44;100595.41;;;19.68;51.02
68654;BME280;55636;51.108;13.622;2022-07-22T03:07:25;100596.56;;;19.67;51.26
68654;BME280;55636;51.108;13.622;2022-07-22T03:08:27;100601.00;;;19.68;51.06
68654;BME280;55636;51.108;13.622;2022-07-22T03:09:30;100595.41;;;19.68;51.30
68654;BME280;55636;51.108;13.622;2022-07-22T03:10:34;100595.72;;;19.67;50.98
68654;BME280;55636;51.108;13.622;2022-07-22T03:11:36;100598.22;;;19.68;51.05
68654;BME280;55636;51.108;13.622;2022-07-22T03:12:39;100599.34;;;19.67;50.97
68654;BME280;55636;51.108;13.622;2022-07-22T03:13:41;100596.56;;;19.67;51.10
68654;BME280;55636;51.108;13.622;2022-07-22T03:14:46;100603.28;;;19.66;50.97
68654;BME280;55636;51.108;13.622;2022-07-22T03:15:49;100606.94;;;19.67;51.31
68654;BME280;55636;51.108;13.622;2022-07-22T03:16:52;100605.28;;;19.66;51.22
68654;BME280;55636;51.108;13.622;2022-07-22T03:17:56;100617.31;;;19.66;51.31
68654;BME280;55636;51.108;13.622;2022-07-22T03:18:59;100612.03;;;19.65;51.16
68654;BME280;55636;51.108;13.622;2022-07-22T03:20:06;100615.63;;;19.65;51.50
68654;BME280;55636;51.108;13.622;2022-07-22T03:21:09;100603.63;;;19.65;51.41
68654;BME280;55636;51.108;13.622;2022-07-22T03:22:12;100605.59;;;19.64;51.66
68654;BME280;55636;51.108;13.622;2022-07-22T03:23:14;100612.84;;;19.65;51.41
68654;BME280;55636;51.108;13.622;2022-07-22T03:24:17;100609.22;;;19.65;51.32
68654;BME280;55636;51.108;13.622;2022-07-22T03:25:20;100612.84;;;19.65;51.33
68654;BME280;55636;51.108;13.622;2022-07-22T03:26:22;100606.75;;;19.63;51.33
68654;BME280;55636;51.108;13.622;2022-07-22T03:27:25;100612.03;;;19.65;51.52
68654;BME280;55636;51.108;13.622;2022-07-22T03:28:28;100606.41;;;19.65;51.46
68654;BME280;55636;51.108;13.622;2022-07-22T03:29:31;100605.59;;;19.64;51.56
68654;BME280;55636;51.108;13.622;2022-07-22T03:30:33;100607.22;;;19.65;51.81
68654;BME280;55636;51.108;13.622;2022-07-22T03:31:35;100606.09;;;19.66;51.69
68654;BME280;55636;51.108;13.622;2022-07-22T03:32:39;100603.63;;;19.65;51.47
68654;BME280;55636;51.108;13.622;2022-07-22T03:33:47;100610.03;;;19.65;51.42
68654;BME280;55636;51.108;13.622;2022-07-22T03:34:50;100604.44;;;19.65;51.63
68654;BME280;55636;51.108;13.622;2022-07-22T03:35:52;100595.22;;;19.65;51.80
68654;BME280;55636;51.108;13.622;2022-07-22T03:36:54;100604.44;;;19.65;51.77
68654;BME280;55636;51.108;13.622;2022-07-22T03:37:57;100599.69;;;19.66;51.57
68654;BME280;55636;51.108;13.622;2022-07-22T03:39:02;100605.28;;;19.66;51.58
68654;BME280;55636;51.108;13.622;2022-07-22T03:40:05;100604.44;;;19.65;51.74
68654;BME280;55636;51.108;13.622;2022-07-22T03:41:08;100605.28;;;19.66;51.78
68654;BME280;55636;51.108;13.622;2022-07-22T03:42:10;100609.22;;;19.65;51.68
68654;BME280;55636;51.108;13.622;2022-07-22T03:43:22;100603.63;;;19.65;51.53
68654;BME280;55636;51.108;13.622;2022-07-22T03:44:25;100607.22;;;19.65;51.66
68654;BME280;55636;51.108;13.622;2022-07-22T03:45:27;100606.41;;;19.65;51.60
68654;BME280;55636;51.108;13.622;2022-07-22T03:46:31;100605.59;;;19.64;51.88
68654;BME280;55636;51.108;13.622;2022-07-22T03:47:33;100609.22;;;19.65;51.74
68654;BME280;55636;51.108;13.622;2022-07-22T03:48:35;100608.09;;;19.66;51.82
68654;BME280;55636;51.108;13.622;2022-07-22T03:49:39;100612.84;;;19.65;51.73
68654;BME280;55636;51.108;13.622;2022-07-22T03:50:45;100606.41;;;19.65;51.64
68654;BME280;55636;51.108;13.622;2022-07-22T03:51:49;100608.09;;;19.66;51.68
68654;BME280;55636;51.108;13.622;2022-07-22T03:52:53;100607.22;;;19.65;51.90
68654;BME280;55636;51.108;13.622;2022-07-22T03:53:55;100620.94;;;19.67;52.01
68654;BME280;55636;51.108;13.622;2022-07-22T03:54:57;100616.97;;;19.68;51.88
68654;BME280;55636;51.108;13.622;2022-07-22T03:56:00;100613.03;;;19.69;51.81
68654;BME280;55636;51.108;13.622;2022-07-22T03:57:05;100613.88;;;19.69;52.10
68654;BME280;55636;51.108;13.622;2022-07-22T03:58:07;100610.75;;;19.71;52.14
68654;BME280;55636;51.108;13.622;2022-07-22T03:59:09;100614.38;;;19.71;52.05
68654;BME280;55636;51.108;13.622;2022-07-22T04:00:12;100612.44;;;19.72;51.97
68654;BME280;55636;51.108;13.622;2022-07-22T04:01:20;100607.31;;;19.74;51.78
68654;BME280;55636;51.108;13.622;2022-07-22T04:02:22;100614.25;;;19.76;52.14
68654;BME280;55636;51.108;13.622;2022-07-22T04:03:26;100609.19;;;19.79;51.90
68654;BME280;55636;51.108;13.622;2022-07-22T04:04:47;100618.09;;;19.81;51.83
68654;BME280;55636;51.108;13.622;2022-07-22T04:05:50;100607.72;;;19.81;52.02
68654;BME280;55636;51.108;13.622;2022-07-22T04:07:02;100615.47;;;19.84;51.98
68654;BME280;55636;51.108;13.622;2022-07-22T04:08:10;100615.69;;;19.88;52.01
68654;BME280;55636;51.108;13.622;2022-07-22T04:09:12;100611.75;;;19.89;51.71
68654;BME280;55636;51.108;13.622;2022-07-22T04:10:16;100620.63;;;19.91;52.13
68654;BME280;55636;51.108;13.622;2022-07-22T04:11:19;100622.31;;;19.92;52.08
68654;BME280;55636;51.108;13.622;2022-07-22T04:12:21;100617.25;;;19.94;52.17
68654;BME280;55636;51.108;13.622;2022-07-22T04:13:43;100614.94;;;19.96;52.02
68654;BME280;55636;51.108;13.622;2022-07-22T04:14:45;100615.47;;;19.98;51.99
68654;BME280;55636;51.108;13.622;2022-07-22T04:15:48;100617.09;;;19.99;51.80
68654;BME280;55636;51.108;13.622;2022-07-22T04:16:50;100626.84;;;20.02;52.11
68654;BME280;55636;51.108;13.622;2022-07-22T04:17:53;100612.53;;;20.03;52.06
68654;BME280;55636;51.108;13.622;2022-07-22T04:18:55;100621.44;;;20.05;51.88
68654;BME280;55636;51.108;13.622;2022-07-22T04:20:23;100616.03;;;20.09;52.09
68654;BME280;55636;51.108;13.622;2022-07-22T04:21:45;100618.19;;;20.12;51.77
68654;BME280;55636;51.108;13.622;2022-07-22T04:22:48;100613.09;;;20.14;51.87
68654;BME280;55636;51.108;13.622;2022-07-22T04:23:51;100622.84;;;20.17;52.16
68654;BME280;55636;51.108;13.622;2022-07-22T04:25:03;100616.59;;;20.20;51.68
68654;BME280;55636;51.108;13.622;2022-07-22T04:26:05;100621.56;;;20.23;51.64
68654;BME280;55636;51.108;13.622;2022-07-22T04:27:08;100616.44;;;20.25;51.68
68654;BME280;55636;51.108;13.622;2022-07-22T04:28:12;100618.63;;;20.28;51.78
68654;BME280;55636;51.108;13.622;2022-07-22T04:29:16;100622.78;;;20.31;51.56
68654;BME280;55636;51.108;13.622;2022-07-22T04:30:18;100622.13;;;20.34;51.67
68654;BME280;55636;51.108;13.622;2022-07-22T04:31:23;100625.59;;;20.39;51.37
68654;BME280;55636;51.108;13.622;2022-07-22T04:32:33;100625.81;;;20.43;51.27
68654;BME280;55636;51.108;13.622;2022-07-22T04:33:37;100620.38;;;20.47;51.44
68654;BME280;55636;51.108;13.622;2022-07-22T04:34:39;100612.97;;;20.51;51.29
68654;BME280;55636;51.108;13.622;2022-07-22T04:35:42;100616.47;;;20.56;51.35
68654;BME280;55636;51.108;13.622;2022-07-22T04:36:51;100614.69;;;20.61;50.97
68654;BME280;55636;51.108;13.622;2022-07-22T04:37:54;100612.56;;;20.66;50.60
68654;BME280;55636;51.108;13.622;2022-07-22T04:38:58;100614.72;;;20.69;50.52
68654;BME280;55636;51.108;13.622;2022-07-22T04:40:03;100610.66;;;20.75;50.59
68654;BME280;55636;51.108;13.622;2022-07-22T04:41:07;100618.59;;;20.82;50.57
68654;BME280;55636;51.108;13.622;2022-07-22T04:42:10;100620.44;;;20.87;50.38
68654;BME280;55636;51.108;13.622;2022-07-22T04:43:16;100622.78;;;20.94;50.09
68654;BME280;55636;51.108;13.622;2022-07-22T04:44:18;100619.81;;;20.99;50.23
68654;BME280;55636;51.108;13.622;2022-07-22T04:45:20;100616.84;;;21.04;49.99
68654;BME280;55636;51.108;13.622;2022-07-22T04:46:22;100615.22;;;21.12;50.16
68654;BME280;55636;51.108;13.622;2022-07-22T04:47:25;100625.66;;;21.20;50.09
68654;BME280;55636;51.108;13.622;2022-07-22T04:48:27;100619.56;;;21.27;50.03
68654;BME280;55636;51.108;13.622;2022-07-22T04:49:30;100611.47;;;21.34;49.63
68654;BME280;55636;51.108;13.622;2022-07-22T04:50:36;100620.22;;;21.41;49.67
68654;BME280;55636;51.108;13.622;2022-07-22T04:51:38;100615.47;;;21.50;49.54
68654;BME280;55636;51.108;13.622;2022-07-22T04:52:44;100613.84;;;21.58;49.47
68654;BME280;55636;51.108;13.622;2022-07-22T04:53:51;100617.81;;;21.66;49.41
68654;BME280;55636;51.108;13.622;2022-07-22T04:54:56;100619.47;;;21.76;49.16
68654;BME280;55636;51.108;13.622;2022-07-22T04:56:01;100624.59;;;21.82;49.19
68654;BME280;55636;51.108;13.622;2022-07-22T04:57:04;100622.63;;;21.92;48.95
68654;BME280;55636;51.108;13.622;2022-07-22T04:58:06;100615.31;;;21.99;48.97
68654;BME280;55636;51.108;13.622;2022-07-22T04:59:14;100621.25;;;22.06;48.54
68654;BME280;55636;51.108;13.622;2022-07-22T05:00:16;100617.97;;;22.13;48.40
68654;BME280;55636;51.108;13.622;2022-07-22T05:01:26;100612.69;;;22.20;48.01
68654;BME280;55636;51.108;13.622;2022-07-22T05:02:29;100614.97;;;22.27;47.90
68654;BME280;55636;51.108;13.622;2022-07-22T05:03:32;100616.47;;;22.33;47.58
68654;BME280;55636;51.108;13.622;2022-07-22T05:04:34;100615.13;;;22.39;47.66
68654;BME280;55636;51.108;13.622;2022-07-22T05:05:37;100615.41;;;22.47;47.67
68654;BME280;55636;51.108;13.622;2022-07-22T05:06:40;100612.09;;;22.53;47.60
68654;BME280;55636;51.108;13.622;2022-07-22T05:07:43;100623.66;;;22.61;47.53
68654;BME280;55636;51.108;13.622;2022-07-22T05:08:45;100623.13;;;22.67;47.02
68654;BME280;55636;51.108;13.622;2022-07-22T05:09:47;100619.78;;;22.74;47.06
68654;BME280;55636;51.108;13.622;2022-07-22T05:10:51;100618.09;;;22.82;46.86
68654;BME280;55636;51.108;13.622;2022-07-22T05:11:53;100621.28;;;22.89;46.99
68654;BME280;55636;51.108;13.622;2022-07-22T05:12:57;100620.38;;;22.97;46.57
68654;BME280;55636;51.108;13.622;2022-07-22T05:14:00;100626.34;;;23.04;46.60
68654;BME280;55636;51.108;13.622;2022-07-22T05:15:04;100626.16;;;23.10;46.32
68654;BME280;55636;51.108;13.622;2022-07-22T05:16:07;100623.59;;;23.17;46.12
68654;BME280;55636;51.108;13.622;2022-07-22T05:17:11;100630.34;;;23.25;46.14
68654;BME280;55636;51.108;13.622;2022-07-22T05:18:30;100630.31;;;23.33;45.73
68654;BME280;55636;51.108;13.622;2022-07-22T05:19:33;100623.31;;;23.40;45.80
68654;BME280;55636;51.108;13.622;2022-07-22T05:20:36;100626.41;;;23.47;45.72
68654;BME280;55636;51.108;13.622;2022-07-22T05:21:40;100627.53;;;23.54;45.83
68654;BME280;55636;51.108;13.622;2022-07-22T05:22:43;100622.50;;;23.60;45.41
68654;BME280;55636;51.108;13.622;2022-07-22T05:23:50;100623.59;;;23.68;45.65
68654;BME280;55636;51.108;13.622;2022-07-22T05:24:52;100628.22;;;23.73;45.20
68654;BME280;55636;51.108;13.622;2022-07-22T05:25:54;100621.53;;;23.77;45.04
68654;BME280;55636;51.108;13.622;2022-07-22T05:26:56;100622.19;;;23.83;44.77
68654;BME280;55636;51.108;13.622;2022-07-22T05:27:59;100622.78;;;23.88;44.77
68654;BME280;55636;51.108;13.622;2022-07-22T05:29:06;100623.72;;;23.93;44.81
68654;BME280;55636;51.108;13.622;2022-07-22T05:30:09;100627.50;;;23.97;44.73